createdAt,value
2019-05-12T00:00:39.243Z,96281.28
2019-05-12T00:03:13.144Z,96287.00
2019-05-12T00:06:00.924Z,96288.63
2019-05-12T00:08:33.283Z,96289.51
2019-05-12T00:11:08.934Z,96294.45
2019-05-12T00:13:38.522Z,96290.91
2019-05-12T00:16:09.506Z,96290.33
2019-05-12T00:18:41.975Z,96288.12
2019-05-12T00:21:12.480Z,96288.86
2019-05-12T00:24:00.888Z,96280.59
2019-05-12T00:26:38.276Z,96282.59
2019-05-12T00:29:11.687Z,96281.19
2019-05-12T00:31:42.187Z,96280.59
2019-05-12T00:34:12.663Z,96284.36
2019-05-12T00:36:43.115Z,96289.89
2019-05-12T00:39:33.373Z,96289.67
2019-05-12T00:42:07.782Z,96300.11
2019-05-12T00:44:39.121Z,96295.98
2019-05-12T00:47:10.836Z,96303.20
2019-05-12T00:49:41.290Z,96302.39
2019-05-12T00:52:13.167Z,96312.30
2019-05-12T00:54:48.279Z,96314.22
2019-05-12T00:57:18.962Z,96316.06
2019-05-12T00:59:50.446Z,96319.75
2019-05-12T01:02:21.084Z,96313.41
2019-05-12T01:04:52.121Z,96323.59
2019-05-12T01:07:24.899Z,96321.30
2019-05-12T01:09:55.426Z,96337.11
2019-05-12T01:12:31.454Z,96326.23
2019-05-12T01:15:03.148Z,96336.86
2019-05-12T01:17:33.688Z,96337.96
2019-05-12T01:20:05.189Z,96345.11
2019-05-12T01:22:38.252Z,96347.77
2019-05-12T01:25:17.475Z,96342.61
2019-05-12T01:27:48.346Z,96350.50
2019-05-12T01:30:18.936Z,96345.92
2019-05-12T01:32:49.412Z,96345.95
2019-05-12T01:35:19.825Z,96347.72
2019-05-12T01:37:50.570Z,96350.76
2019-05-12T01:41:04.871Z,96347.52
2019-05-12T01:43:35.333Z,96364.98
2019-05-12T01:46:08.042Z,96368.69
2019-05-12T01:48:38.255Z,96377.39
2019-05-12T01:51:09.118Z,96380.34
2019-05-12T01:53:41.285Z,96376.66
2019-05-12T01:56:11.771Z,96388.80
2019-05-12T01:58:42.252Z,96393.73
2019-05-12T02:01:12.695Z,96400.07
2019-05-12T02:03:44.981Z,96416.80
2019-05-12T02:06:45.375Z,96410.08
2019-05-12T02:09:18.741Z,96415.34
2019-05-12T02:11:49.294Z,96427.28
2019-05-12T02:14:20.171Z,96427.41
2019-05-12T02:16:50.612Z,96437.43
2019-05-12T02:19:21.079Z,96440.90
2019-05-12T02:21:51.520Z,96444.58
2019-05-12T02:24:27.134Z,96452.84
2019-05-12T02:26:54.236Z,96448.05
2019-05-12T02:29:24.738Z,96445.86
2019-05-12T02:31:55.218Z,96441.06
2019-05-12T02:34:25.799Z,96435.08
2019-05-12T02:36:56.214Z,96441.71
2019-05-12T02:39:45.039Z,96431.18
2019-05-12T02:42:15.767Z,96447.10
2019-05-12T02:44:46.382Z,96454.38
2019-05-12T02:47:16.770Z,96460.67
2019-05-12T02:49:47.211Z,96462.34
2019-05-12T02:52:19.441Z,96471.12
2019-05-12T02:54:59.662Z,96472.02
2019-05-12T02:57:25.578Z,96472.23
2019-05-12T02:59:54.574Z,96475.55
2019-05-12T03:02:25.099Z,96480.18
2019-05-12T03:05:00.410Z,96477.22
2019-05-12T03:07:30.792Z,96478.04
2019-05-12T03:10:04.981Z,96490.48
2019-05-12T03:12:40.933Z,96493.44
2019-05-12T03:15:14.821Z,96505.47
2019-05-12T03:17:44.287Z,96504.56
2019-05-12T03:20:16.604Z,96506.49
2019-05-12T03:22:47.028Z,96508.42
2019-05-12T03:25:24.684Z,96515.41
2019-05-12T03:27:49.940Z,96519.63
2019-05-12T03:30:20.426Z,96524.78
2019-05-12T03:32:57.435Z,96530.39
2019-05-12T03:35:32.553Z,96531.57
2019-05-12T03:37:56.565Z,96528.16
2019-05-12T03:40:37.503Z,96537.83
2019-05-12T03:43:10.341Z,96536.80
2019-05-12T03:45:37.962Z,96541.17
2019-05-12T03:48:08.469Z,96547.22
2019-05-12T03:50:38.907Z,96552.95
2019-05-12T03:53:11.235Z,96561.34
2019-05-12T03:55:46.415Z,96567.70
2019-05-12T03:58:15.189Z,96565.48
2019-05-12T04:00:46.078Z,96567.62
2019-05-12T04:03:16.562Z,96582.14
2019-05-12T04:05:47.348Z,96577.66
2019-05-12T04:08:18.160Z,96586.28
2019-05-12T04:10:49.926Z,96593.43
2019-05-12T04:13:20.335Z,96596.23
2019-05-12T04:15:50.813Z,96596.23
2019-05-12T04:18:28.942Z,96601.77
2019-05-12T04:20:59.413Z,96595.64
2019-05-12T04:23:34.881Z,96595.86
2019-05-12T04:26:12.078Z,96598.90
2019-05-12T04:28:40.444Z,96606.63
2019-05-12T04:31:10.835Z,96609.50
2019-05-12T04:33:45.230Z,96615.73
2019-05-12T04:36:17.011Z,96623.43
2019-05-12T04:38:47.522Z,96632.63
2019-05-12T04:41:20.143Z,96634.05
2019-05-12T04:43:50.126Z,96635.73
2019-05-12T04:46:20.603Z,96630.13
2019-05-12T04:48:58.445Z,96643.34
2019-05-12T04:51:30.959Z,96644.95
2019-05-12T04:54:01.141Z,96655.30
2019-05-12T04:56:35.416Z,96653.52
2019-05-12T04:59:05.179Z,96662.69
2019-05-12T05:01:38.329Z,96672.73
2019-05-12T05:04:09.174Z,96679.16
2019-05-12T05:06:45.287Z,96677.92
2019-05-12T05:09:17.047Z,96692.16
2019-05-12T05:11:49.461Z,96698.46
2019-05-12T05:14:20.012Z,96700.96
2019-05-12T05:16:57.626Z,96702.72
2019-05-12T05:19:33.740Z,96715.35
2019-05-12T05:22:04.382Z,96722.81
2019-05-12T05:24:35.206Z,96732.58
2019-05-12T05:27:07.263Z,96734.91
2019-05-12T05:29:40.042Z,96735.35
2019-05-12T05:32:10.801Z,96743.62
2019-05-12T05:34:46.231Z,96748.94
2019-05-12T05:37:14.547Z,96749.59
2019-05-12T05:39:49.691Z,96735.80
2019-05-12T05:42:22.050Z,96748.72
2019-05-12T05:44:49.826Z,96753.80
2019-05-12T05:47:27.135Z,96751.14
2019-05-12T05:49:59.588Z,96758.36
2019-05-12T05:52:38.550Z,96761.61
2019-05-12T05:55:14.857Z,96760.20
2019-05-12T05:57:40.232Z,96760.95
2019-05-12T06:00:17.376Z,96766.32
2019-05-12T06:02:44.082Z,96756.16
2019-05-12T06:05:19.917Z,96763.66
2019-05-12T06:07:50.277Z,96760.59
2019-05-12T06:10:20.778Z,96771.48
2019-05-12T06:12:54.250Z,96762.80
2019-05-12T06:15:24.860Z,96774.05
2019-05-12T06:17:55.541Z,96772.94
2019-05-12T06:20:28.784Z,96778.64
2019-05-12T06:22:59.281Z,96773.54
2019-05-12T06:25:45.979Z,96778.64
2019-05-12T06:28:11.140Z,96784.16
2019-05-12T06:30:45.050Z,96789.30
2019-05-12T06:33:14.472Z,96785.03
2019-05-12T06:35:45.570Z,96788.80
2019-05-12T06:38:23.690Z,96789.41
2019-05-12T06:40:54.477Z,96796.39
2019-05-12T06:43:29.082Z,96805.69
2019-05-12T06:45:57.298Z,96801.28
2019-05-12T06:48:33.239Z,96811.39
2019-05-12T06:51:04.120Z,96816.98
2019-05-12T06:53:55.152Z,96815.95
2019-05-12T06:56:26.645Z,96819.23
2019-05-12T06:59:09.866Z,96821.38
2019-05-12T07:01:38.061Z,96831.19
2019-05-12T07:04:15.978Z,96832.83
2019-05-12T07:06:49.783Z,96836.09
2019-05-12T07:09:25.157Z,96838.32
2019-05-12T07:12:02.931Z,96835.81
2019-05-12T07:14:28.978Z,96838.05
2019-05-12T07:19:43.967Z,96851.60
2019-05-12T07:22:21.957Z,96853.66
2019-05-12T07:24:54.718Z,96854.63
2019-05-12T07:27:36.067Z,96864.59
2019-05-12T07:30:04.777Z,96868.17
2019-05-12T07:32:43.372Z,96880.90
2019-05-12T07:35:14.749Z,96879.28
2019-05-12T07:37:45.357Z,96882.84
2019-05-12T07:40:18.965Z,96878.96
2019-05-12T07:42:47.979Z,96890.36
2019-05-12T07:45:22.468Z,96892.90
2019-05-12T07:47:51.243Z,96900.24
2019-05-12T07:50:26.506Z,96899.89
2019-05-12T07:52:54.338Z,96898.39
2019-05-12T07:55:26.928Z,96901.66
2019-05-12T07:58:13.687Z,96912.80
2019-05-12T08:00:38.927Z,96915.52
2019-05-12T08:03:25.077Z,96913.70
2019-05-12T08:06:02.247Z,96910.17
2019-05-12T08:08:33.966Z,96914.94
2019-05-12T08:11:04.903Z,96921.64
2019-05-12T08:13:40.917Z,96921.02
2019-05-12T08:16:14.408Z,96914.28
2019-05-12T08:18:54.073Z,96915.61
2019-05-12T08:21:27.145Z,96917.14
2019-05-12T08:23:57.880Z,96927.27
2019-05-12T08:26:29.813Z,96930.28
2019-05-12T08:29:00.343Z,96929.05
2019-05-12T08:31:40.060Z,96928.25
2019-05-12T08:34:06.155Z,96932.63
2019-05-12T08:36:36.736Z,96930.27
2019-05-12T08:39:11.931Z,96929.63
2019-05-12T08:41:44.258Z,96928.70
2019-05-12T08:44:17.025Z,96929.27
2019-05-12T08:46:52.059Z,96937.16
2019-05-12T08:49:24.194Z,96952.00
2019-05-12T08:51:58.565Z,96952.33
2019-05-12T08:54:26.829Z,96960.64
2019-05-12T08:57:01.264Z,96964.90
2019-05-12T08:59:34.274Z,96967.83
2019-05-12T09:02:10.512Z,96976.02
2019-05-12T09:05:04.701Z,96976.98
2019-05-12T09:07:39.864Z,96977.80
2019-05-12T09:10:09.506Z,96989.20
2019-05-12T09:12:40.088Z,96989.39
2019-05-12T09:15:14.016Z,96989.90
2019-05-12T09:17:52.649Z,96996.64
2019-05-12T09:20:19.113Z,96997.19
2019-05-12T09:22:52.795Z,96998.00
2019-05-12T09:25:23.992Z,97002.20
2019-05-12T09:27:54.445Z,97007.34
2019-05-12T09:30:33.649Z,97016.74
2019-05-12T09:33:04.780Z,97013.96
2019-05-12T09:35:39.349Z,97021.64
2019-05-12T09:38:21.313Z,97018.53
2019-05-12T09:40:52.862Z,97024.12
2019-05-12T09:43:23.881Z,97028.69
2019-05-12T09:45:56.512Z,97034.66
2019-05-12T09:48:52.327Z,97035.46
2019-05-12T09:51:35.219Z,97026.77
2019-05-12T09:53:58.826Z,97026.56
2019-05-12T09:56:29.747Z,97019.48
2019-05-12T09:59:04.727Z,97019.19
2019-05-12T10:01:39.693Z,97021.16
2019-05-12T10:04:15.396Z,97006.91
2019-05-12T10:06:44.443Z,97012.84
2019-05-12T10:09:49.316Z,97015.84
2019-05-12T10:12:22.905Z,97018.55
2019-05-12T10:14:53.566Z,97021.03
2019-05-12T10:17:30.199Z,97018.00
2019-05-12T10:20:00.450Z,97025.48
2019-05-12T10:22:40.163Z,97023.84
2019-05-12T10:25:14.389Z,97018.05
2019-05-12T10:27:56.325Z,97019.55
2019-05-12T10:30:27.044Z,97018.45
2019-05-12T10:32:57.617Z,97029.06
2019-05-12T10:35:43.673Z,97037.73
2019-05-12T10:38:13.889Z,97037.99
2019-05-12T10:40:45.461Z,97042.52
2019-05-12T10:43:23.535Z,97036.72
2019-05-12T10:45:53.789Z,97039.80
2019-05-12T10:48:26.210Z,97045.82
2019-05-12T10:51:12.120Z,97050.69
2019-05-12T10:53:59.887Z,97046.44
2019-05-12T10:56:27.629Z,97042.72
2019-05-12T10:58:58.204Z,97039.72
2019-05-12T11:01:30.770Z,97049.61
2019-05-12T11:04:03.965Z,97056.60
2019-05-12T11:06:39.716Z,97063.11
2019-05-12T11:09:09.779Z,97065.24
2019-05-12T11:11:45.317Z,97058.34
2019-05-12T11:14:14.346Z,97065.14
2019-05-12T11:16:47.293Z,97073.83
2019-05-12T11:19:17.797Z,97078.02
2019-05-12T11:21:50.608Z,97069.94
2019-05-12T11:24:21.144Z,97079.44
2019-05-12T11:26:53.620Z,97075.45
2019-05-12T11:29:27.719Z,97076.11
2019-05-12T11:31:59.760Z,97079.64
2019-05-12T11:34:33.557Z,97084.02
2019-05-12T11:37:10.119Z,97082.52
2019-05-12T11:39:45.255Z,97084.81
2019-05-12T11:42:13.636Z,97096.89
2019-05-12T11:44:45.922Z,97100.68
2019-05-12T11:47:24.085Z,97095.52
2019-05-12T11:49:49.912Z,97098.71
2019-05-12T11:52:20.652Z,97099.89
2019-05-12T11:54:59.775Z,97109.27
2019-05-12T11:57:30.460Z,97113.02
2019-05-12T12:00:20.720Z,97107.74
2019-05-12T12:02:54.115Z,97121.95
2019-05-12T12:05:30.515Z,97129.58
2019-05-12T12:08:04.031Z,97135.38
2019-05-12T12:10:40.205Z,97140.23
2019-05-12T12:13:10.785Z,97143.63
2019-05-12T12:15:48.855Z,97135.88
2019-05-12T12:18:23.935Z,97140.44
2019-05-12T12:21:04.126Z,97142.23
2019-05-12T12:23:35.939Z,97146.95
2019-05-12T12:26:37.298Z,97147.08
2019-05-12T12:29:10.934Z,97155.83
2019-05-12T12:31:50.490Z,97151.25
2019-05-12T12:34:30.066Z,97162.75
2019-05-12T12:36:58.357Z,97153.88
2019-05-12T12:39:32.131Z,97147.55
2019-05-12T12:42:19.615Z,97156.58
2019-05-12T12:44:58.843Z,97156.80
2019-05-12T12:47:29.140Z,97153.69
2019-05-12T12:50:04.048Z,97168.42
2019-05-12T12:52:44.798Z,97161.71
2019-05-12T12:55:20.241Z,97155.64
2019-05-12T12:57:50.877Z,97169.00
2019-05-12T13:00:31.821Z,97168.39
2019-05-12T13:02:55.090Z,97165.97
2019-05-12T13:05:25.730Z,97172.85
2019-05-12T13:07:56.336Z,97181.13
2019-05-12T13:10:27.099Z,97167.41
2019-05-12T13:13:00.952Z,97170.70
2019-05-12T13:15:31.222Z,97182.13
2019-05-12T13:18:05.262Z,97181.94
2019-05-12T13:20:35.702Z,97176.38
2019-05-12T13:23:15.093Z,97177.30
2019-05-12T13:25:51.963Z,97178.66
2019-05-12T13:28:25.130Z,97183.52
2019-05-12T13:31:08.252Z,97178.53
2019-05-12T13:33:33.844Z,97174.59
2019-05-12T13:36:00.974Z,97174.40
2019-05-12T13:38:38.780Z,97185.99
2019-05-12T13:41:04.507Z,97191.23
2019-05-12T13:43:37.945Z,97185.58
2019-05-12T13:46:10.740Z,97194.23
2019-05-12T13:48:43.337Z,97197.09
2019-05-12T13:51:15.846Z,97186.73
2019-05-12T13:53:50.431Z,97189.66
2019-05-12T13:56:25.747Z,97189.34
2019-05-12T13:58:55.338Z,97190.16
2019-05-12T14:01:26.103Z,97195.75
2019-05-12T14:03:57.931Z,97183.42
2019-05-12T14:06:39.609Z,97186.92
2019-05-12T14:09:10.550Z,97179.48
2019-05-12T14:11:43.510Z,97184.08
2019-05-12T14:14:15.397Z,97196.27
2019-05-12T14:16:57.463Z,97195.81
2019-05-12T14:19:30.373Z,97215.84
2019-05-12T14:22:15.145Z,97216.44
2019-05-12T14:24:46.703Z,97216.34
2019-05-12T14:27:19.101Z,97206.18
2019-05-12T14:29:47.912Z,97217.40
2019-05-12T14:32:19.232Z,97211.90
2019-05-12T14:34:51.162Z,97208.55
2019-05-12T14:37:24.302Z,97198.75
2019-05-12T14:39:55.639Z,97206.63
2019-05-12T14:42:34.804Z,97210.23
2019-05-12T14:45:01.770Z,97213.48
2019-05-12T14:47:33.944Z,97214.02
2019-05-12T14:50:06.852Z,97201.16
2019-05-12T14:52:37.704Z,97208.92
2019-05-12T14:55:17.248Z,97213.20
2019-05-12T14:57:48.086Z,97222.72
2019-05-12T15:00:21.281Z,97225.34
2019-05-12T15:02:54.099Z,97229.67
2019-05-12T15:05:27.764Z,97222.47
2019-05-12T15:08:01.645Z,97217.88
2019-05-12T15:10:35.157Z,97221.55
2019-05-12T15:13:05.736Z,97211.75
2019-05-12T15:15:36.252Z,97227.98
2019-05-12T15:18:13.767Z,97230.05
2019-05-12T15:20:50.346Z,97226.93
2019-05-12T15:23:23.832Z,97222.32
2019-05-12T15:25:54.381Z,97224.70
2019-05-12T15:28:35.789Z,97229.23
2019-05-12T15:31:06.229Z,97227.21
2019-05-12T15:33:38.933Z,97239.05
2019-05-12T15:36:09.132Z,97237.14
2019-05-12T15:38:49.252Z,97242.06
2019-05-12T15:41:20.230Z,97236.89
2019-05-12T15:43:55.849Z,97240.95
2019-05-12T15:46:34.660Z,97246.80
2019-05-12T15:49:04.602Z,97244.57
2019-05-12T15:51:53.051Z,97248.55
2019-05-12T15:54:14.503Z,97255.03
2019-05-12T15:56:46.108Z,97255.22
2019-05-12T15:59:17.444Z,97254.64
2019-05-12T16:01:48.271Z,97260.92
2019-05-12T16:04:27.183Z,97251.41
2019-05-12T16:06:57.928Z,97251.57
2019-05-12T16:09:28.460Z,97251.89
2019-05-12T16:12:09.426Z,97255.84
2019-05-12T16:14:36.852Z,97257.47
2019-05-12T16:17:25.026Z,97256.94
2019-05-12T16:19:53.994Z,97260.50
2019-05-12T16:22:24.148Z,97255.50
2019-05-12T16:24:56.414Z,97263.67
2019-05-12T16:27:33.160Z,97265.34
2019-05-12T16:30:04.720Z,97268.92
2019-05-12T16:32:44.604Z,97262.33
2019-05-12T16:35:14.563Z,97273.03
2019-05-12T16:37:46.781Z,97263.91
2019-05-12T16:40:17.268Z,97266.00
2019-05-12T16:42:55.130Z,97265.42
2019-05-12T16:45:23.458Z,97271.41
2019-05-12T16:47:54.130Z,97273.31
2019-05-12T16:50:31.352Z,97284.30
2019-05-12T16:53:21.664Z,97278.82
2019-05-12T16:56:11.306Z,97279.61
2019-05-12T16:58:44.837Z,97278.91
2019-05-12T17:01:19.579Z,97280.54
2019-05-12T17:03:54.652Z,97284.70
2019-05-12T17:06:28.821Z,97290.89
2019-05-12T17:08:57.755Z,97295.90
2019-05-12T17:11:31.031Z,97295.52
2019-05-12T17:14:04.947Z,97283.69
2019-05-12T17:16:41.717Z,97291.14
2019-05-12T17:19:10.464Z,97301.46
2019-05-12T17:21:40.632Z,97297.09
2019-05-12T17:24:14.696Z,97304.20
2019-05-12T17:26:46.836Z,97304.63
2019-05-12T17:29:19.534Z,97305.91
2019-05-12T17:31:59.261Z,97310.08
2019-05-12T17:34:35.278Z,97311.55
2019-05-12T17:37:06.104Z,97312.35
2019-05-12T17:39:39.152Z,97312.80
2019-05-12T17:42:13.094Z,97314.70
2019-05-12T17:44:43.454Z,97318.80
2019-05-12T17:47:25.808Z,97314.78
2019-05-12T17:49:55.082Z,97322.22
2019-05-12T17:52:26.182Z,97318.91
2019-05-12T17:55:04.660Z,97331.11
2019-05-12T17:57:33.978Z,97330.81
2019-05-12T18:00:16.168Z,97336.58
2019-05-12T18:03:00.111Z,97339.99
2019-05-12T18:05:28.991Z,97340.99
2019-05-12T18:08:01.083Z,97339.77
2019-05-12T18:10:37.869Z,97338.36
2019-05-12T18:13:09.080Z,97343.89
2019-05-12T18:15:55.050Z,97352.06
2019-05-12T18:18:32.743Z,97351.99
2019-05-12T18:21:13.124Z,97349.20
2019-05-12T18:23:44.313Z,97348.09
2019-05-12T18:26:18.323Z,97359.22
2019-05-12T18:28:49.214Z,97358.36
2019-05-12T18:31:25.186Z,97360.66
2019-05-12T18:33:56.995Z,97364.30
2019-05-12T18:36:34.023Z,97368.26
2019-05-12T18:39:12.468Z,97363.13
2019-05-12T18:41:53.984Z,97372.11
2019-05-12T18:44:28.858Z,97375.70
2019-05-12T18:46:55.095Z,97372.13
2019-05-12T18:49:29.082Z,97380.31
2019-05-12T18:52:04.866Z,97383.43
2019-05-12T18:54:36.872Z,97386.84
2019-05-12T18:57:24.771Z,97390.20
2019-05-12T19:00:01.440Z,97394.04
2019-05-12T19:02:29.229Z,97396.11
2019-05-12T19:05:15.250Z,97395.68
2019-05-12T19:07:44.107Z,97400.59
2019-05-12T19:10:16.163Z,97406.80
2019-05-12T19:12:46.626Z,97408.00
2019-05-12T19:15:21.832Z,97408.73
2019-05-12T19:17:54.040Z,97410.28
2019-05-12T19:20:31.280Z,97413.62
2019-05-12T19:23:03.603Z,97416.21
2019-05-12T19:25:35.820Z,97416.04
2019-05-12T19:28:10.511Z,97421.89
2019-05-12T19:30:43.772Z,97425.02
2019-05-12T19:33:20.900Z,97422.66
2019-05-12T19:35:59.927Z,97430.06
2019-05-12T19:38:24.319Z,97435.61
2019-05-12T19:41:00.694Z,97439.53
2019-05-12T19:43:34.163Z,97446.15
2019-05-12T19:46:08.339Z,97451.70
2019-05-12T19:48:48.170Z,97451.09
2019-05-12T19:51:21.881Z,97452.03
2019-05-12T19:53:49.205Z,97450.40
2019-05-12T19:56:23.987Z,97460.14
2019-05-12T19:58:55.128Z,97464.87
2019-05-12T20:01:32.806Z,97469.39
2019-05-12T20:04:03.887Z,97465.53
2019-05-12T20:06:34.307Z,97467.59
2019-05-12T20:09:10.790Z,97468.23
2019-05-12T20:11:41.414Z,97471.36
2019-05-12T20:14:19.020Z,97478.24
2019-05-12T20:16:47.099Z,97478.05
2019-05-12T20:19:25.512Z,97476.87
2019-05-12T20:21:59.091Z,97481.91
2019-05-12T20:24:34.279Z,97485.30
2019-05-12T20:27:10.531Z,97484.17
2019-05-12T20:29:45.792Z,97492.53
2019-05-12T20:32:17.723Z,97490.73
2019-05-12T20:34:51.975Z,97484.17
2019-05-12T20:37:23.580Z,97491.05
2019-05-12T20:40:04.924Z,97493.93
2019-05-12T20:42:42.119Z,97492.59
2019-05-12T20:45:07.534Z,97497.11
2019-05-12T20:47:45.170Z,97493.05
2019-05-12T20:50:14.883Z,97504.64
2019-05-12T20:52:52.270Z,97501.34
2019-05-12T20:55:19.331Z,97505.16
2019-05-12T20:57:56.814Z,97507.91
2019-05-12T21:00:26.821Z,97505.59
2019-05-12T21:02:57.670Z,97505.93
2019-05-12T21:05:28.508Z,97506.66
2019-05-12T21:08:06.186Z,97513.83
2019-05-12T21:10:34.290Z,97515.38
2019-05-12T21:13:09.788Z,97516.73
2019-05-12T21:15:42.759Z,97512.12
2019-05-12T21:18:14.661Z,97517.05
2019-05-12T21:20:46.348Z,97516.67
2019-05-12T21:23:17.206Z,97520.77
2019-05-12T21:25:58.135Z,97519.13
2019-05-12T21:28:28.645Z,97517.70
2019-05-12T21:30:59.183Z,97518.86
2019-05-12T21:33:31.319Z,97525.45
2019-05-12T21:36:04.842Z,97521.55
2019-05-12T21:38:44.135Z,97523.22
2019-05-12T21:41:15.653Z,97520.58
2019-05-12T21:43:48.325Z,97526.31
2019-05-12T21:46:21.263Z,97521.00
2019-05-12T21:49:15.650Z,97523.77
2019-05-12T21:51:59.127Z,97532.77
2019-05-12T21:54:39.970Z,97531.44
2019-05-12T21:57:10.600Z,97536.07
2019-05-12T21:59:41.145Z,97534.22
2019-05-12T22:02:11.571Z,97530.86
2019-05-12T22:04:45.586Z,97535.56
2019-05-12T22:07:15.655Z,97534.64
2019-05-12T22:09:47.894Z,97533.52
2019-05-12T22:12:23.275Z,97535.75
2019-05-12T22:14:54.301Z,97541.59
2019-05-12T22:17:26.101Z,97546.41
2019-05-12T22:20:12.160Z,97546.72
2019-05-12T22:22:36.614Z,97543.84
2019-05-12T22:25:19.096Z,97546.81
2019-05-12T22:27:53.729Z,97553.86
2019-05-12T22:30:24.181Z,97558.13
2019-05-12T22:33:08.289Z,97557.62
2019-05-12T22:35:34.277Z,97555.34
2019-05-12T22:38:16.576Z,97559.02
2019-05-12T22:40:42.838Z,97554.01
2019-05-12T22:43:14.208Z,97550.41
2019-05-12T22:45:54.987Z,97560.93
2019-05-12T22:48:29.683Z,97557.96
2019-05-12T22:51:06.290Z,97565.11
2019-05-12T22:53:39.883Z,97570.73
2019-05-12T22:56:12.680Z,97573.69
2019-05-12T22:58:45.052Z,97570.72
2019-05-12T23:01:15.848Z,97567.00
2019-05-12T23:03:51.573Z,97569.78
2019-05-12T23:06:23.797Z,97581.98
2019-05-12T23:08:50.963Z,97580.41
2019-05-12T23:11:31.769Z,97579.70
2019-05-12T23:13:57.269Z,97584.05
2019-05-12T23:16:29.312Z,97583.23
2019-05-12T23:19:01.462Z,97582.16
2019-05-12T23:21:32.214Z,97584.50
2019-05-12T23:24:03.769Z,97587.78
2019-05-12T23:26:41.758Z,97585.64
2019-05-12T23:29:06.559Z,97593.48
2019-05-12T23:31:40.475Z,97590.52
2019-05-12T23:34:12.226Z,97583.97
2019-05-12T23:36:50.364Z,97588.15
2019-05-12T23:39:18.103Z,97589.28
2019-05-12T23:41:53.837Z,97591.91
2019-05-12T23:44:25.669Z,97590.78
2019-05-12T23:46:56.170Z,97592.99
2019-05-12T23:49:33.887Z,97591.73
2019-05-12T23:52:04.533Z,97591.20
2019-05-12T23:54:34.964Z,97594.39
2019-05-12T23:57:05.480Z,97596.50
2019-05-12T23:59:35.906Z,97593.69
